Latest Weather Observations for Padthaway

IDS60801

Issued at 10:35 pm CDT Friday 31 October 2014 (issued every 30 minutes, with the page automatically refreshed every 10 minutes)

About weather observations | Map of weather stations | Latest weather observations for SA | Other Formats
Station Details ID: 026100 Name: PADTHAWAY SOUTH Lat: -36.65 Lon: 140.52 Height: 37.0 m
Data from the previous 72 hours. | See also: Recent months at Padthaway
Date/Time
CDT
Temp
°C
App
Temp
°C
Dew
Point
Rel
Hum
%
Delta-T
°C
Wind Press
QNH
hPa
Press
MSL
hPa
Rain
since 9 am
mm
Dir
 
Spd
km/h
Gust
km/h
Spd
kts
Gust
kts
31/10:30pm 15.3 12.8 10.9 75 2.3 SSW 15 22 8 12 - - 0.0
31/10:00pm 15.6 12.5 11.6 77 2.2 SW 19 30 10 16 - - 0.0
31/09:30pm 16.2 13.6 12.0 76 2.3 WSW 17 24 9 13 - - 0.0
31/09:00pm 16.2 14.2 12.6 79 2.0 SW 15 22 8 12 - - 0.0
31/08:30pm 16.8 13.1 12.7 77 2.3 SW 24 37 13 20 - - 0.0
31/08:00pm 17.5 14.1 12.6 73 2.7 SW 22 32 12 17 - - 0.0
31/07:30pm 19.6 16.1 12.1 62 4.2 WSW 22 32 12 17 - - 0.0
31/07:00pm 21.4 17.9 10.3 49 6.0 W 19 30 10 16 - - 0.0
31/06:30pm 23.9 20.2 7.9 36 8.5 W 17 24 9 13 - - 0.0
31/06:00pm 25.4 21.1 7.1 31 9.6 WSW 19 30 10 16 - - 0.0
31/05:30pm 27.0 20.9 4.7 24 11.3 W 26 39 14 21 - - 0.0
31/05:00pm 31.0 23.2 3.1 17 14.2 W 33 54 18 29 - - 0.0
31/04:50pm 32.0 24.4 3.1 16 14.8 W 32 50 17 27 - - 0.0
31/04:30pm 33.4 26.6 3.3 15 15.5 W 28 41 15 22 - - 0.0
31/04:13pm 33.7 26.4 2.5 14 15.9 W 30 48 16 26 - - 0.0
31/04:00pm 33.3 27.3 1.2 13 16.0 WNW 22 35 12 19 - - 0.0
31/03:30pm 33.4 25.6 -1.0 11 16.6 WNW 30 46 16 25 - - 0.0
31/03:04pm 33.5 26.2 0.2 12 16.4 WNW 28 46 15 25 - - 0.0
31/03:00pm 33.6 26.7 0.3 12 16.4 WNW 26 43 14 23 - - 0.0
31/02:31pm 33.4 25.7 0.1 12 16.3 NW 30 52 16 28 - - 0.0
31/02:30pm 33.6 26.1 1.4 13 16.1 NW 30 44 16 24 - - 0.0
31/02:16pm 33.2 25.5 0.0 12 16.2 NNW 30 52 16 28 - - 0.0
31/02:00pm 33.4 25.7 0.1 12 16.3 NNW 30 43 16 23 - - 0.0
31/01:41pm 32.5 24.3 0.6 13 15.7 N 33 52 18 28 - - 0.0
31/01:30pm 32.3 24.8 1.4 14 15.4 NNW 30 44 16 24 - - 0.0
31/01:00pm 31.3 23.3 0.6 14 15.0 NNW 32 48 17 26 - - 0.0
31/12:30pm 31.9 24.9 2.1 15 15.0 N 28 46 15 25 - - 0.0
31/12:07pm 30.6 23.7 2.8 17 14.0 N 28 46 15 25 - - 0.0
31/12:00pm 30.1 22.4 2.4 17 13.8 N 32 46 17 25 - - 0.0
31/11:49am 29.5 21.7 1.9 17 13.6 N 32 50 17 27 - - 0.0
31/11:30am 28.7 21.0 2.1 18 13.1 N 32 48 17 26 - - 0.0
31/11:06am 27.5 20.6 2.6 20 12.2 N 28 46 15 25 - - 0.0
31/11:00am 27.1 20.4 3.6 22 11.7 N 28 41 15 22 - - 0.0
31/10:44am 27.3 20.1 3.1 21 12.0 NNE 30 48 16 26 - - 0.0
31/10:30am 26.7 20.0 3.9 23 11.4 N 28 39 15 21 - - 0.0
31/10:00am 25.6 19.8 6.3 29 10.0 N 26 37 14 20 - - 0.0
31/09:30am 23.8 18.9 7.0 34 8.7 NNE 22 33 12 18 - - 0.0
31/09:00am 22.1 16.9 7.1 38 7.7 NNE 24 37 13 20 - - 0.0
31/08:30am 19.1 14.5 8.1 49 5.7 NE 22 30 12 16 - - 0.0
31/08:00am 17.7 12.6 7.7 52 5.1 NE 24 33 13 18 - - 0.0
31/07:30am 16.8 12.5 8.0 56 4.5 NNE 20 35 11 19 - - 0.0
31/07:00am 15.8 12.1 7.8 59 4.0 NNE 17 24 9 13 - - 0.0
31/06:30am 15.2 11.1 7.7 61 3.7 NNE 19 30 10 16 - - 0.0
31/06:00am 15.1 13.0 8.3 64 3.4 NNE 9 13 5 7 - - 0.0
31/05:30am 14.7 11.6 8.9 68 3.0 NE 15 20 8 11 - - 0.0
31/05:00am 14.1 12.3 9.3 73 2.5 NE 9 13 5 7 - - 0.0
31/04:30am 13.6 12.3 9.1 74 2.3 ENE 6 11 3 6 - - 0.0
31/04:00am 13.2 11.9 9.3 77 2.0 E 6 9 3 5 - - 0.0
31/03:30am 12.8 11.0 9.3 79 1.8 ENE 9 11 5 6 - - 0.0
31/03:00am 10.6 8.7 8.9 89 0.8 NE 9 11 5 6 - - 0.0
31/02:30am 9.3 7.6 7.7 90 0.8 S 6 7 3 4 - - 0.0
31/02:00am 9.4 8.9 8.0 91 0.7 CALM 0 0 0 0 - - 0.0
31/01:30am 8.8 8.1 6.9 88 0.9 CALM 0 0 0 0 - - 0.0
31/01:00am 9.2 8.6 7.5 89 0.8 CALM 0 0 0 0 - - 0.0
31/12:30am 9.4 7.5 7.5 88 0.9 SSE 7 9 4 5 - - 0.0
31/12:00am 10.0 8.2 7.9 87 1.0 SSE 7 9 4 5 - - 0.0
 
Date/Time
CDT
Temp
°C
App
Temp
°C
Dew
Point
Rel
Hum
%
Delta-T
°C
Wind Press
QNH
hPa
Press
MSL
hPa
Rain
since 9 am
mm
Dir
 
Spd
km/h
Gust
km/h
Spd
kts
Gust
kts
30/11:30pm 10.5 8.4 8.1 85 1.2 SSE 9 11 5 6 - - 0.0
30/11:00pm 10.4 8.1 7.6 83 1.3 SE 9 11 5 6 - - 0.0
30/10:30pm 11.0 8.8 7.9 81 1.5 ESE 9 11 5 6 - - 0.0
30/10:00pm 11.5 9.7 8.0 79 1.7 S 7 9 4 5 - - 0.0
30/09:30pm 12.6 10.8 8.1 74 2.2 S 7 9 4 5 - - 0.0
30/09:00pm 14.0 12.2 7.8 66 3.1 S 7 9 4 5 - - 0.0
30/08:30pm 14.4 12.8 8.1 66 3.1 SSW 6 9 3 5 - - 0.0
30/08:00pm 16.2 15.1 8.4 60 4.0 W 4 7 2 4 - - 0.0
30/07:30pm 17.9 16.3 8.2 53 5.0 W 6 9 3 5 - - 0.0
30/07:00pm 20.0 17.4 7.7 45 6.3 W 11 17 6 9 - - 0.0
30/06:30pm 21.3 18.0 8.2 43 6.9 W 15 20 8 11 - - 0.0
30/06:00pm 21.9 18.6 8.1 41 7.2 W 15 20 8 11 - - 0.0
30/05:30pm 22.5 19.2 8.2 40 7.5 W 15 22 8 12 - - 0.0
30/05:00pm 23.3 20.1 7.0 35 8.4 WSW 13 20 7 11 - - 0.0
30/04:30pm 23.1 19.6 7.2 36 8.3 W 15 22 8 12 - - 0.0
30/04:00pm 23.1 19.9 6.8 35 8.4 W 13 19 7 10 - - 0.0
30/03:30pm 22.9 19.8 7.4 37 8.1 W 13 24 7 13 - - 0.0
30/03:00pm 22.8 19.3 7.4 37 8.0 WNW 15 24 8 13 - - 0.0
30/02:30pm 22.6 19.6 7.6 38 7.8 WSW 13 24 7 13 - - 0.0
30/02:00pm 21.5 19.8 7.7 41 7.2 S 6 15 3 8 - - 0.0
30/01:30pm 20.8 18.6 7.8 43 6.7 WSW 9 15 5 8 - - 0.0
30/01:00pm 20.2 17.2 7.9 45 6.4 W 13 20 7 11 - - 0.0
30/12:30pm 20.1 17.6 8.1 46 6.2 NW 11 20 6 11 - - 0.0
30/12:00pm 19.3 16.4 8.3 49 5.7 WSW 13 24 7 13 - - 0.0
30/11:30am 17.8 15.0 8.4 54 4.8 W 13 22 7 12 - - 0.0
30/11:00am 17.5 14.6 8.1 54 4.8 W 13 17 7 9 - - 0.0
30/10:30am 17.2 14.2 7.8 54 4.8 W 13 19 7 10 - - 0.0
30/10:00am 16.5 13.9 7.7 56 4.4 WNW 11 17 6 9 - - 0.0
30/09:30am 15.5 12.0 7.3 58 4.1 WNW 15 22 8 12 - - 0.0
30/09:00am 15.7 13.2 8.4 62 3.7 WNW 11 19 6 10 - - 0.0
30/08:30am 15.2 13.9 9.1 67 3.1 NW 6 11 3 6 - - 0.0
30/08:00am 13.6 11.8 9.3 75 2.2 N 9 11 5 6 - - 0.0
30/07:30am 12.7 12.7 9.7 82 1.5 CALM 0 0 0 0 - - 0.0
30/07:00am 12.0 12.0 9.7 86 1.2 CALM 0 6 0 3 - - 0.0
30/06:30am 11.7 11.5 9.1 84 1.3 CALM 0 0 0 0 - - 0.0
30/06:00am 11.6 11.5 9.3 86 1.2 CALM 0 0 0 0 - - 0.0
30/05:30am 11.2 9.9 9.1 87 1.0 NW 6 9 3 5 - - 0.0
30/05:00am 11.0 9.0 8.6 85 1.2 NNE 9 11 5 6 - - 0.0
30/04:30am 11.7 10.8 9.3 85 1.2 N 4 7 2 4 - - 0.0
30/04:00am 11.3 9.9 8.7 84 1.3 SW 6 11 3 6 - - 0.0
30/03:30am 11.4 11.4 9.8 90 0.8 CALM 0 0 0 0 - - 0.0
30/03:00am 11.2 11.2 9.9 92 0.7 CALM 0 0 0 0 - - 0.0
30/02:30am 11.0 10.6 9.8 92 0.6 NNW 2 7 1 4 - - 0.0
30/02:00am 10.9 11.0 10.0 94 0.5 CALM 0 0 0 0 - - 0.0
30/01:30am 10.5 10.5 9.9 96 0.3 CALM 0 0 0 0 - - 0.0
30/01:00am 9.2 7.1 8.4 95 0.4 N 9 11 5 6 - - 0.0
30/12:30am 7.7 5.7 6.3 91 0.6 NW 6 7 3 4 - - 0.0
30/12:00am 8.4 6.6 7.0 91 0.7 NNW 6 7 3 4 - - 0.0
 
Date/Time
CDT
Temp
°C
App
Temp
°C
Dew
Point
Rel
Hum
%
Delta-T
°C
Wind Press
QNH
hPa
Press
MSL
hPa
Rain
since 9 am
mm
Dir
 
Spd
km/h
Gust
km/h
Spd
kts
Gust
kts
29/11:30pm 9.1 8.5 7.4 89 0.8 CALM 0 0 0 0 - - 0.0
29/11:00pm 9.9 9.5 8.2 89 0.8 CALM 0 0 0 0 - - 0.0
29/10:30pm 10.8 10.5 8.7 87 1.0 CALM 0 0 0 0 - - 0.0
29/10:00pm 11.3 11.1 9.2 87 1.1 CALM 0 0 0 0 - - 0.0
29/09:30pm 12.0 11.5 9.2 83 1.4 S 2 7 1 4 - - 0.0
29/09:00pm 12.9 11.6 10.1 83 1.4 S 7 13 4 7 - - 0.0
29/08:30pm 13.6 12.1 10.6 82 1.6 S 9 15 5 8 - - 0.0
29/08:00pm 14.1 12.1 10.1 77 2.1 SSW 11 17 6 9 - - 0.0
29/07:30pm 14.9 12.1 10.1 73 2.5 SW 15 24 8 13 - - 0.0
29/07:00pm 16.4 13.4 9.3 63 3.7 SW 15 22 8 12 - - 0.0
29/06:30pm 18.1 14.4 9.5 57 4.5 WSW 19 28 10 15 - - 0.0
29/06:00pm 18.8 14.8 9.0 53 5.1 WSW 20 30 11 16 - - 0.0
29/05:30pm 19.5 15.4 8.8 50 5.6 W 20 30 11 16 - - 0.0
29/05:00pm 20.5 16.6 9.4 49 5.9 W 20 33 11 18 - - 0.0
29/04:30pm 20.5 16.7 9.7 50 5.8 W 20 35 11 19 - - 0.0
29/04:00pm 20.8 16.6 9.7 49 6.0 W 22 32 12 17 - - 0.0
29/03:30pm 20.7 16.7 9.0 47 6.2 W 20 33 11 18 - - 0.0
29/03:00pm 21.3 17.3 8.9 45 6.6 W 20 35 11 19 - - 0.0
29/02:30pm 21.4 17.4 9.0 45 6.6 W 20 32 11 17 - - 0.0
29/02:00pm 20.4 16.4 9.0 48 6.0 WNW 20 30 11 16 - - 0.0
29/01:30pm 20.3 16.3 8.9 48 6.0 W 20 32 11 17 - - 0.0
29/01:00pm 19.3 16.2 8.9 51 5.5 WNW 15 20 8 11 - - 0.0
29/12:30pm 18.8 15.2 8.2 50 5.5 NNW 17 26 9 14 - - 0.0
29/12:00pm 18.2 14.6 8.5 53 5.0 WNW 17 24 9 13 - - 0.0
29/11:30am 17.7 14.2 8.8 56 4.6 NW 17 26 9 14 - - 0.0
29/11:00am 17.2 13.7 8.6 57 4.4 WNW 17 22 9 12 - - 0.0
29/10:30am 16.3 14.3 8.8 61 3.9 NNW 9 19 5 10 - - 0.0
29/10:00am 14.2 13.2 10.2 77 2.1 W 6 15 3 8 - - 0.0
29/09:30am 14.9 12.4 9.7 71 2.7 WNW 13 20 7 11 - - 0.0
29/09:00am 15.0 12.7 9.1 68 3.0 N 11 15 6 8 - - 0.0
29/08:30am 14.4 12.2 9.4 72 2.6 NNW 11 15 6 8 - - 0.0
29/08:00am 13.6 11.4 9.3 75 2.2 NNW 11 15 6 8 - - 0.0
29/07:30am 12.8 11.9 9.3 79 1.8 N 4 9 2 5 - - 0.0
29/07:00am 11.9 11.8 9.3 84 1.3 CALM 0 0 0 0 - - 0.0
29/06:30am 11.4 10.6 9.5 88 1.0 N 4 7 2 4 - - 0.0
29/06:00am 11.2 11.1 9.5 89 0.9 CALM 0 0 0 0 - - 0.0
29/05:30am 11.0 10.9 9.3 89 0.9 CALM 0 0 0 0 - - 0.0
29/05:00am 10.8 9.3 9.2 90 0.8 N 7 9 4 5 - - 0.0
29/04:30am 10.4 8.8 8.8 90 0.8 NNW 7 9 4 5 - - 0.0
29/04:00am 10.0 8.4 8.8 92 0.6 NNW 7 11 4 6 - - 0.0
29/03:30am 9.5 9.0 7.9 90 0.8 CALM 0 0 0 0 - - 0.0
29/03:00am 9.9 9.6 8.5 91 0.7 CALM 0 0 0 0 - - 0.0
29/02:30am 9.8 9.5 8.7 93 0.5 CALM 0 0 0 0 - - 0.0
29/02:00am 9.0 7.8 8.2 95 0.4 N 4 7 2 4 - - 0.0
29/01:30am 7.2 5.0 6.0 92 0.5 N 7 9 4 5 - - 0.0
29/01:00am 7.6 5.4 6.2 91 0.6 N 7 7 4 4 - - 0.0
29/12:30am 7.3 5.0 5.6 89 0.8 N 7 7 4 4 - - 0.0
29/12:00am 7.9 5.7 6.4 90 0.7 N 7 9 4 5 - - 0.0
 
Date/Time
CDT
Temp
°C
App
Temp
°C
Dew
Point
Rel
Hum
%
Delta-T
°C
Wind Press
QNH
hPa
Press
MSL
hPa
Rain
since 9 am
mm
Dir
 
Spd
km/h
Gust
km/h
Spd
kts
Gust
kts
28/11:30pm 8.2 5.7 6.7 90 0.7 NNW 9 9 5 5 - - 0.0
28/11:00pm 8.6 6.5 6.7 88 0.9 N 7 9 4 5 - - 0.0

Other Formats:

Comma delimited format used in spreadsheet applications
http://www.bom.gov.au/fwo/IDS60801/IDS60801.95823.axf

JavaScript Object Notation format (JSON) in row-major order
http://www.bom.gov.au/fwo/IDS60801/IDS60801.95823.json